createdAt,value
2023-03-17T00:01:37.204Z,10.39
2023-03-17T00:04:07.250Z,10.40
2023-03-17T00:06:37.200Z,10.41
2023-03-17T00:09:07.337Z,10.44
2023-03-17T00:11:37.196Z,10.44
2023-03-17T00:14:09.686Z,10.42
2023-03-17T00:16:42.389Z,10.41
2023-03-17T00:19:18.105Z,10.40
2023-03-17T00:21:48.680Z,10.42
2023-03-17T00:24:20.757Z,10.41
2023-03-17T00:26:50.649Z,10.42
2023-03-17T00:29:23.204Z,10.42
2023-03-17T00:31:53.623Z,10.44
2023-03-17T00:34:23.997Z,10.47
2023-03-17T00:36:56.207Z,10.46
2023-03-17T00:39:27.249Z,10.47
2023-03-17T00:41:57.258Z,10.45
2023-03-17T00:44:31.208Z,10.43
2023-03-17T00:47:01.727Z,10.42
2023-03-17T00:49:32.816Z,10.37
2023-03-17T00:52:03.376Z,10.36
2023-03-17T00:54:33.973Z,10.38
2023-03-17T00:57:04.022Z,10.37
2023-03-17T00:59:41.120Z,10.34
2023-03-17T01:02:13.320Z,10.33
2023-03-17T01:04:52.674Z,10.33
2023-03-17T01:07:23.126Z,10.31
2023-03-17T01:09:53.247Z,10.34
2023-03-17T01:12:23.352Z,10.33
2023-03-17T01:14:55.752Z,10.29
2023-03-17T01:17:25.857Z,10.30
2023-03-17T01:19:55.792Z,10.32
2023-03-17T01:22:25.714Z,10.31
2023-03-17T01:24:55.588Z,10.35
2023-03-17T01:27:25.527Z,10.38
2023-03-17T01:29:58.690Z,10.39
2023-03-17T01:32:28.556Z,10.42
2023-03-17T01:34:59.071Z,10.42
2023-03-17T01:37:29.025Z,10.37
2023-03-17T01:39:59.765Z,10.36
2023-03-17T01:42:29.649Z,10.33
2023-03-17T01:45:05.706Z,10.29
2023-03-17T01:47:36.250Z,10.26
2023-03-17T01:50:09.519Z,10.26
2023-03-17T01:52:42.588Z,10.24
2023-03-17T01:55:15.452Z,10.23
2023-03-17T01:57:50.907Z,10.23
2023-03-17T02:00:26.722Z,10.19
2023-03-17T02:02:58.413Z,10.21
2023-03-17T02:05:31.148Z,10.19
2023-03-17T02:08:01.312Z,10.20
2023-03-17T02:10:32.821Z,10.20
2023-03-17T02:13:05.809Z,10.20
2023-03-17T02:15:48.554Z,10.14
2023-03-17T02:18:20.297Z,10.17
2023-03-17T02:21:26.213Z,10.13
2023-03-17T02:23:59.309Z,10.19
2023-03-17T02:26:31.618Z,10.24
2023-03-17T02:29:01.556Z,10.25
2023-03-17T02:31:31.482Z,10.26
2023-03-17T02:34:01.489Z,10.22
2023-03-17T02:36:32.132Z,10.20
2023-03-17T02:39:04.940Z,10.18
2023-03-17T02:41:35.102Z,10.15
2023-03-17T02:44:05.158Z,10.14
2023-03-17T02:46:34.981Z,10.10
2023-03-17T02:49:06.172Z,10.08
2023-03-17T02:51:36.913Z,10.06
2023-03-17T02:54:09.682Z,10.00
2023-03-17T02:56:40.221Z,9.99
2023-03-17T02:59:09.974Z,9.97
2023-03-17T03:01:40.261Z,9.93
2023-03-17T03:04:10.263Z,9.95
2023-03-17T03:06:40.034Z,9.93
2023-03-17T03:09:12.917Z,9.86
2023-03-17T03:11:43.298Z,9.84
2023-03-17T03:14:13.913Z,9.84
2023-03-17T03:16:43.937Z,9.82
2023-03-17T03:19:13.757Z,9.84
2023-03-17T03:21:43.591Z,9.83
2023-03-17T03:24:16.018Z,9.84
2023-03-17T03:26:46.020Z,9.83
2023-03-17T03:29:16.953Z,9.77
2023-03-17T03:31:48.290Z,9.78
2023-03-17T03:34:18.327Z,9.75
2023-03-17T03:36:48.088Z,9.72
2023-03-17T03:39:20.638Z,9.69
2023-03-17T03:41:50.560Z,9.64
2023-03-17T03:44:20.306Z,9.61
2023-03-17T03:46:50.175Z,9.57
2023-03-17T03:49:19.972Z,9.53
2023-03-17T03:51:49.773Z,9.50
2023-03-17T03:54:22.173Z,9.47
2023-03-17T03:56:52.024Z,9.46
2023-03-17T03:59:21.928Z,9.46
2023-03-17T04:01:51.746Z,9.46
2023-03-17T04:04:22.989Z,9.44
2023-03-17T04:06:52.946Z,9.43
2023-03-17T04:09:28.646Z,9.44
2023-03-17T04:11:58.442Z,9.42
2023-03-17T04:14:28.704Z,9.43
2023-03-17T04:16:58.762Z,9.46
2023-03-17T04:19:28.966Z,9.46
2023-03-17T04:21:59.263Z,9.50
2023-03-17T04:24:31.751Z,9.50
2023-03-17T04:27:06.147Z,9.49
2023-03-17T04:29:39.041Z,9.45
2023-03-17T04:32:09.403Z,9.46
2023-03-17T04:34:39.637Z,9.44
2023-03-17T04:37:09.672Z,9.44
2023-03-17T04:39:42.383Z,9.43
2023-03-17T04:42:12.925Z,9.44
2023-03-17T04:44:43.169Z,9.42
2023-03-17T04:47:13.611Z,9.42
2023-03-17T04:49:43.641Z,9.42
2023-03-17T04:52:13.491Z,9.42
2023-03-17T04:54:46.117Z,9.44
2023-03-17T04:57:16.200Z,9.46
2023-03-17T04:59:45.959Z,9.45
2023-03-17T05:02:15.819Z,9.47
2023-03-17T05:04:45.892Z,9.49
2023-03-17T05:07:16.321Z,9.48
2023-03-17T05:09:48.792Z,9.48
2023-03-17T05:12:18.752Z,9.53
2023-03-17T05:14:48.651Z,9.55
2023-03-17T05:17:18.472Z,9.60
2023-03-17T05:19:48.371Z,9.62
2023-03-17T05:22:18.332Z,9.61
2023-03-17T05:24:51.052Z,9.62
2023-03-17T05:27:22.830Z,9.61
2023-03-17T05:29:52.764Z,9.57
2023-03-17T05:32:22.567Z,9.55
2023-03-17T05:34:52.455Z,9.54
2023-03-17T05:37:22.804Z,9.51
2023-03-17T05:39:55.344Z,9.52
2023-03-17T05:42:25.218Z,9.51
2023-03-17T05:44:55.175Z,9.50
2023-03-17T05:47:25.548Z,9.49
2023-03-17T05:49:55.486Z,9.48
2023-03-17T05:52:25.350Z,9.47
2023-03-17T05:54:58.400Z,9.45
2023-03-17T05:57:28.467Z,9.47
2023-03-17T05:59:58.342Z,9.48
2023-03-17T06:02:28.280Z,9.48
2023-03-17T06:04:58.135Z,9.49
2023-03-17T06:07:33.090Z,9.50
2023-03-17T06:10:11.900Z,9.52
2023-03-17T06:12:42.042Z,9.56
2023-03-17T06:15:12.701Z,9.60
2023-03-17T06:17:42.686Z,9.61
2023-03-17T06:20:14.549Z,9.63
2023-03-17T06:23:02.187Z,9.68
2023-03-17T06:25:37.137Z,9.67
2023-03-17T06:28:10.280Z,9.66
2023-03-17T06:30:40.933Z,9.68
2023-03-17T06:33:11.198Z,9.71
2023-03-17T06:35:41.244Z,9.73
2023-03-17T06:38:11.185Z,9.75
2023-03-17T06:40:43.675Z,9.77
2023-03-17T06:43:13.615Z,9.81
2023-03-17T06:45:43.733Z,9.86
2023-03-17T06:48:13.663Z,9.88
2023-03-17T06:50:43.436Z,9.93
2023-03-17T06:53:13.554Z,9.98
2023-03-17T06:55:45.998Z,10.08
2023-03-17T06:58:16.102Z,10.17
2023-03-17T07:00:47.311Z,10.24
2023-03-17T07:03:17.370Z,10.30
2023-03-17T07:05:47.926Z,10.39
2023-03-17T07:08:18.342Z,10.50
2023-03-17T07:10:51.548Z,10.61
2023-03-17T07:13:22.478Z,10.72
2023-03-17T07:15:55.245Z,10.84
2023-03-17T07:18:25.670Z,10.92
2023-03-17T07:20:56.481Z,11.03
2023-03-17T07:23:27.339Z,11.15
2023-03-17T07:26:00.557Z,11.20
2023-03-17T07:28:30.509Z,11.27
2023-03-17T07:31:02.979Z,11.34
2023-03-17T07:33:33.843Z,11.48
2023-03-17T07:36:05.293Z,11.61
2023-03-17T07:38:35.193Z,11.75
2023-03-17T07:41:09.998Z,11.90
2023-03-17T07:43:41.348Z,12.03
2023-03-17T07:46:11.483Z,12.15
2023-03-17T07:48:43.561Z,12.23
2023-03-17T07:51:17.296Z,12.38
2023-03-17T07:53:47.724Z,12.49
2023-03-17T07:56:21.542Z,12.58
2023-03-17T07:58:52.348Z,12.63
2023-03-17T08:01:23.598Z,12.72
2023-03-17T08:03:53.663Z,12.81
2023-03-17T08:06:27.317Z,12.91
2023-03-17T08:08:57.754Z,12.99
2023-03-17T08:11:30.345Z,13.11
2023-03-17T08:14:01.600Z,13.19
2023-03-17T08:16:31.566Z,13.32
2023-03-17T08:19:04.035Z,13.49
2023-03-17T08:21:33.928Z,13.58
2023-03-17T08:24:04.604Z,13.64
2023-03-17T08:26:37.851Z,13.71
2023-03-17T08:29:08.248Z,13.74
2023-03-17T08:31:38.618Z,13.80
2023-03-17T08:34:08.744Z,13.81
2023-03-17T08:36:39.043Z,13.79
2023-03-17T08:39:10.600Z,13.72
2023-03-17T08:41:43.527Z,13.67
2023-03-17T08:44:13.407Z,13.66
2023-03-17T08:46:43.900Z,13.69
2023-03-17T08:49:14.496Z,13.82
2023-03-17T08:51:45.039Z,13.94
2023-03-17T08:54:15.403Z,14.12
2023-03-17T08:56:47.943Z,14.27
2023-03-17T08:59:17.685Z,14.42
2023-03-17T09:01:47.664Z,14.53
2023-03-17T09:04:17.568Z,14.53
2023-03-17T09:07:02.336Z,14.53
2023-03-17T09:09:34.644Z,14.48
2023-03-17T09:12:09.587Z,14.53
2023-03-17T09:14:43.813Z,14.67
2023-03-17T09:17:15.496Z,14.77
2023-03-17T09:19:45.351Z,14.83
2023-03-17T09:22:16.370Z,14.93
2023-03-17T09:24:46.213Z,15.03
2023-03-17T09:27:18.613Z,15.22
2023-03-17T09:29:48.554Z,15.39
2023-03-17T09:32:18.975Z,15.42
2023-03-17T09:34:51.413Z,15.51
2023-03-17T09:37:21.473Z,15.56
2023-03-17T09:39:51.479Z,15.68
2023-03-17T09:42:42.394Z,15.79
2023-03-17T09:45:30.519Z,15.85
2023-03-17T09:48:27.455Z,15.95
2023-03-17T09:51:00.423Z,16.14
2023-03-17T09:53:34.823Z,16.31
2023-03-17T09:56:10.910Z,16.45
2023-03-17T09:58:50.050Z,16.54
2023-03-17T10:01:20.993Z,16.68
2023-03-17T10:03:51.710Z,16.78
2023-03-17T10:06:33.599Z,16.86
2023-03-17T10:09:10.405Z,17.00
2023-03-17T10:11:44.796Z,17.11
2023-03-17T10:14:31.629Z,17.15
2023-03-17T10:17:06.557Z,17.33
2023-03-17T10:19:43.125Z,17.52
2023-03-17T10:22:21.952Z,17.69
2023-03-17T10:24:55.750Z,17.82
2023-03-17T10:27:27.463Z,17.95
2023-03-17T10:29:59.989Z,17.95
2023-03-17T10:32:30.426Z,18.03
2023-03-17T10:35:04.151Z,18.10
2023-03-17T10:37:36.798Z,18.03
2023-03-17T10:40:10.423Z,18.12
2023-03-17T10:42:50.660Z,18.07
2023-03-17T10:45:31.010Z,18.11
2023-03-17T10:48:02.797Z,18.24
2023-03-17T10:50:41.250Z,18.36
2023-03-17T10:53:29.453Z,18.46
2023-03-17T10:56:02.612Z,18.52
2023-03-17T10:58:41.805Z,18.50
2023-03-17T11:01:23.938Z,18.48
2023-03-17T11:03:54.057Z,18.37
2023-03-17T11:06:36.542Z,18.34
2023-03-17T11:09:12.678Z,18.46
2023-03-17T11:11:48.431Z,18.53
2023-03-17T11:14:22.747Z,18.50
2023-03-17T11:16:59.181Z,18.51
2023-03-17T11:19:38.915Z,18.46
2023-03-17T11:22:12.879Z,18.53
2023-03-17T11:24:50.777Z,18.67
2023-03-17T11:27:32.490Z,18.69
2023-03-17T11:30:17.786Z,18.59
2023-03-17T11:32:56.674Z,18.59
2023-03-17T11:35:44.504Z,18.51
2023-03-17T11:38:23.106Z,18.60
2023-03-17T11:41:35.814Z,18.65
2023-03-17T11:44:21.358Z,18.55
2023-03-17T11:46:56.612Z,18.67
2023-03-17T11:49:35.277Z,18.78
2023-03-17T11:52:14.596Z,18.99
2023-03-17T11:54:54.160Z,19.11
2023-03-17T11:57:30.284Z,19.24
2023-03-17T12:00:04.091Z,19.36
2023-03-17T12:02:41.508Z,19.45
2023-03-17T12:05:18.903Z,19.45
2023-03-17T12:07:53.268Z,19.53
2023-03-17T12:10:28.811Z,19.67
2023-03-17T12:13:02.686Z,19.75
2023-03-17T12:15:37.610Z,19.70
2023-03-17T12:18:14.903Z,19.77
2023-03-17T12:20:52.788Z,19.77
2023-03-17T12:23:32.181Z,19.81
2023-03-17T12:26:08.261Z,19.90
2023-03-17T12:28:45.289Z,20.04
2023-03-17T12:31:20.479Z,20.17
2023-03-17T12:33:57.846Z,20.27
2023-03-17T12:36:32.086Z,20.21
2023-03-17T12:39:05.692Z,20.17
2023-03-17T12:41:52.388Z,20.18
2023-03-17T12:44:36.394Z,20.27
2023-03-17T12:47:34.275Z,20.13
2023-03-17T12:50:20.816Z,20.06
2023-03-17T12:53:26.745Z,19.94
2023-03-17T12:56:00.071Z,20.03
2023-03-17T12:58:38.640Z,20.02
2023-03-17T13:01:18.662Z,19.99
2023-03-17T13:04:01.029Z,20.03
2023-03-17T13:06:34.887Z,20.04
2023-03-17T13:09:32.727Z,20.01
2023-03-17T13:12:04.264Z,20.02
2023-03-17T13:14:44.925Z,19.96
2023-03-17T13:17:37.781Z,19.92
2023-03-17T13:20:21.153Z,19.93
2023-03-17T13:23:14.884Z,19.84
2023-03-17T13:25:56.350Z,19.85
2023-03-17T13:28:33.144Z,19.83
2023-03-17T13:31:13.331Z,19.86
2023-03-17T13:33:48.676Z,19.91
2023-03-17T13:36:39.580Z,19.83
2023-03-17T13:39:58.659Z,19.70
2023-03-17T13:42:55.508Z,19.73
2023-03-17T13:45:41.653Z,19.77
2023-03-17T13:48:38.046Z,19.78
2023-03-17T13:51:20.757Z,19.85
2023-03-17T13:53:55.790Z,19.90
2023-03-17T13:56:29.793Z,19.98
2023-03-17T13:59:10.395Z,19.96
2023-03-17T14:01:44.919Z,20.01
2023-03-17T14:04:28.454Z,19.99
2023-03-17T14:07:02.545Z,19.98
2023-03-17T14:09:40.467Z,19.92
2023-03-17T14:12:16.308Z,19.90
2023-03-17T14:14:54.199Z,19.88
2023-03-17T14:17:28.923Z,19.92
2023-03-17T14:20:11.147Z,19.81
2023-03-17T14:22:45.862Z,19.84
2023-03-17T14:25:20.288Z,19.88
2023-03-17T14:27:52.903Z,19.94
2023-03-17T14:30:27.824Z,20.05
2023-03-17T14:33:04.064Z,20.01
2023-03-17T14:35:37.992Z,20.05
2023-03-17T14:38:20.714Z,20.03
2023-03-17T14:40:51.380Z,20.12
2023-03-17T14:43:23.367Z,20.18
2023-03-17T14:46:01.790Z,20.26
2023-03-17T14:48:34.770Z,20.38
2023-03-17T14:51:08.144Z,20.48
2023-03-17T14:53:41.882Z,20.47
2023-03-17T14:56:12.593Z,20.45
2023-03-17T14:58:46.179Z,20.39
2023-03-17T15:01:21.049Z,20.21
2023-03-17T15:03:59.334Z,20.16
2023-03-17T15:06:31.270Z,20.18
2023-03-17T15:09:03.213Z,20.17
2023-03-17T15:11:42.731Z,20.14
2023-03-17T15:14:21.300Z,20.18
2023-03-17T15:16:55.888Z,20.17
2023-03-17T15:19:28.906Z,20.14
2023-03-17T15:22:00.670Z,20.16
2023-03-17T15:24:41.782Z,20.11
2023-03-17T15:27:18.193Z,20.03
2023-03-17T15:29:49.931Z,19.98
2023-03-17T15:32:25.172Z,19.99
2023-03-17T15:34:57.171Z,19.99
2023-03-17T15:37:29.156Z,19.93
2023-03-17T15:39:59.755Z,19.90
2023-03-17T15:42:31.788Z,19.87
2023-03-17T15:45:02.086Z,19.79
2023-03-17T15:47:37.017Z,19.73
2023-03-17T15:50:19.372Z,19.52
2023-03-17T15:52:49.404Z,19.55
2023-03-17T15:55:25.885Z,19.46
2023-03-17T15:58:00.051Z,19.40
2023-03-17T16:00:37.359Z,19.35
2023-03-17T16:03:19.659Z,19.29
2023-03-17T16:05:50.517Z,19.33
2023-03-17T16:08:23.330Z,19.32
2023-03-17T16:10:53.330Z,19.31
2023-03-17T16:13:23.632Z,19.25
2023-03-17T16:15:57.425Z,19.21
2023-03-17T16:18:36.241Z,19.08
2023-03-17T16:21:07.864Z,18.96
2023-03-17T16:23:39.153Z,18.88
2023-03-17T16:26:15.592Z,18.83
2023-03-17T16:28:47.779Z,18.80
2023-03-17T16:31:24.960Z,18.77
2023-03-17T16:33:57.998Z,18.75
2023-03-17T16:36:28.447Z,18.68
2023-03-17T16:38:58.421Z,18.65
2023-03-17T16:41:30.673Z,18.56
2023-03-17T16:44:05.598Z,18.46
2023-03-17T16:46:37.320Z,18.40
2023-03-17T16:49:09.804Z,18.32
2023-03-17T16:51:39.622Z,18.29
2023-03-17T16:54:09.691Z,18.16
2023-03-17T16:56:40.764Z,18.06
2023-03-17T16:59:13.233Z,18.00
2023-03-17T17:01:43.059Z,17.91
2023-03-17T17:04:15.516Z,17.84
2023-03-17T17:06:45.645Z,17.83
2023-03-17T17:09:15.582Z,17.83
2023-03-17T17:11:45.647Z,17.78
2023-03-17T17:14:15.827Z,17.80
2023-03-17T17:16:48.198Z,17.76
2023-03-17T17:19:21.097Z,17.74
2023-03-17T17:21:50.917Z,17.70
2023-03-17T17:24:21.075Z,17.63
2023-03-17T17:26:51.122Z,17.58
2023-03-17T17:29:20.979Z,17.53
2023-03-17T17:31:50.976Z,17.44
2023-03-17T17:34:23.641Z,17.44
2023-03-17T17:36:53.566Z,17.44
2023-03-17T17:39:23.480Z,17.42
2023-03-17T17:41:53.319Z,17.39
2023-03-17T17:44:23.123Z,17.36
2023-03-17T17:46:53.287Z,17.32
2023-03-17T17:49:25.744Z,17.30
2023-03-17T17:51:55.709Z,17.26
2023-03-17T17:54:25.640Z,17.27
2023-03-17T17:56:55.849Z,17.23
2023-03-17T17:59:27.145Z,17.20
2023-03-17T18:01:57.446Z,17.14
2023-03-17T18:04:29.880Z,17.10
2023-03-17T18:06:59.788Z,17.09
2023-03-17T18:09:31.877Z,17.02
2023-03-17T18:12:01.891Z,16.95
2023-03-17T18:14:31.675Z,16.90
2023-03-17T18:17:01.597Z,16.83
2023-03-17T18:19:34.063Z,16.73
2023-03-17T18:22:04.586Z,16.73
2023-03-17T18:24:36.235Z,16.64
2023-03-17T18:27:06.530Z,16.61
2023-03-17T18:29:36.946Z,16.58
2023-03-17T18:32:08.068Z,16.50
2023-03-17T18:34:43.594Z,16.47
2023-03-17T18:37:16.438Z,16.46
2023-03-17T18:39:55.514Z,16.42
2023-03-17T18:42:35.663Z,16.38
2023-03-17T18:45:06.928Z,16.35
2023-03-17T18:47:38.977Z,16.27
2023-03-17T18:50:18.456Z,16.21
2023-03-17T18:52:48.877Z,16.21
2023-03-17T18:55:19.515Z,16.17
2023-03-17T18:57:50.221Z,16.16
2023-03-17T19:00:20.950Z,16.09
2023-03-17T19:02:50.793Z,16.02
2023-03-17T19:05:23.588Z,15.97
2023-03-17T19:07:53.450Z,15.97
2023-03-17T19:10:23.624Z,15.93
2023-03-17T19:12:53.536Z,15.83
2023-03-17T19:15:23.480Z,15.86
2023-03-17T19:17:53.521Z,15.84
2023-03-17T19:20:26.018Z,15.84
2023-03-17T19:22:57.000Z,15.84
2023-03-17T19:25:26.820Z,15.80
2023-03-17T19:27:56.641Z,15.78
2023-03-17T19:30:27.155Z,15.72
2023-03-17T19:32:57.132Z,15.68
2023-03-17T19:35:29.636Z,15.66
2023-03-17T19:37:59.708Z,15.60
2023-03-17T19:40:29.758Z,15.58
2023-03-17T19:43:00.043Z,15.57
2023-03-17T19:45:30.034Z,15.53
2023-03-17T19:48:00.184Z,15.50
2023-03-17T19:50:33.757Z,15.49
2023-03-17T19:53:03.841Z,15.47
2023-03-17T19:55:34.003Z,15.45
2023-03-17T19:58:05.866Z,15.40
2023-03-17T20:00:36.366Z,15.39
2023-03-17T20:03:06.770Z,15.37
2023-03-17T20:05:39.496Z,15.38
2023-03-17T20:08:09.812Z,15.38
2023-03-17T20:10:39.772Z,15.40
2023-03-17T20:13:09.957Z,15.41
2023-03-17T20:15:40.272Z,15.41
2023-03-17T20:18:11.115Z,15.39
2023-03-17T20:20:49.580Z,15.40
2023-03-17T20:23:19.891Z,15.39
2023-03-17T20:25:49.785Z,15.44
2023-03-17T20:28:20.191Z,15.40
2023-03-17T20:30:51.154Z,15.40
2023-03-17T20:33:21.273Z,15.40
2023-03-17T20:35:53.854Z,15.41
2023-03-17T20:38:24.149Z,15.44
2023-03-17T20:40:54.487Z,15.42
2023-03-17T20:43:24.278Z,15.43
2023-03-17T20:45:54.042Z,15.42
2023-03-17T20:48:24.131Z,15.39
2023-03-17T20:50:58.159Z,15.37
2023-03-17T20:53:28.434Z,15.35
2023-03-17T20:55:59.120Z,15.39
2023-03-17T20:58:30.586Z,15.37
2023-03-17T21:01:01.989Z,15.37
2023-03-17T21:03:32.441Z,15.38
2023-03-17T21:06:04.909Z,15.38
2023-03-17T21:08:36.731Z,15.38
2023-03-17T21:11:08.109Z,15.36
2023-03-17T21:13:38.907Z,15.36
2023-03-17T21:16:08.911Z,15.33
2023-03-17T21:18:38.944Z,15.33
2023-03-17T21:21:11.920Z,15.25
2023-03-17T21:23:41.893Z,15.22
2023-03-17T21:26:15.032Z,15.14
2023-03-17T21:28:45.951Z,15.07
2023-03-17T21:31:17.396Z,15.01
2023-03-17T21:33:50.541Z,14.98
2023-03-17T21:36:23.744Z,14.95
2023-03-17T21:38:56.344Z,14.97
2023-03-17T21:41:33.615Z,14.95
2023-03-17T21:44:08.420Z,14.95
2023-03-17T21:46:38.344Z,14.92
2023-03-17T21:49:08.359Z,14.89
2023-03-17T21:51:41.121Z,14.88
2023-03-17T21:54:10.968Z,14.89
2023-03-17T21:56:41.617Z,14.83
2023-03-17T21:59:14.107Z,14.82
2023-03-17T22:01:44.682Z,14.81
2023-03-17T22:04:15.659Z,14.79
2023-03-17T22:06:53.906Z,14.80
2023-03-17T22:09:23.737Z,14.73
2023-03-17T22:11:53.674Z,14.70
2023-03-17T22:14:23.476Z,14.68
2023-03-17T22:16:53.843Z,14.66
2023-03-17T22:19:23.635Z,14.65
2023-03-17T22:21:56.694Z,14.63
2023-03-17T22:24:26.747Z,14.64
2023-03-17T22:26:56.801Z,14.61
2023-03-17T22:29:27.247Z,14.62
2023-03-17T22:31:57.317Z,14.60
2023-03-17T22:34:28.013Z,14.62
2023-03-17T22:37:01.205Z,14.60
2023-03-17T22:39:31.140Z,14.58
2023-03-17T22:42:01.052Z,14.54
2023-03-17T22:44:30.930Z,14.52
2023-03-17T22:47:01.031Z,14.49
2023-03-17T22:49:31.402Z,14.48
2023-03-17T22:52:04.312Z,14.44
2023-03-17T22:54:34.134Z,14.42
2023-03-17T22:57:05.614Z,14.40
2023-03-17T22:59:36.044Z,14.36
2023-03-17T23:02:06.581Z,14.31
2023-03-17T23:04:37.023Z,14.29
2023-03-17T23:07:09.901Z,14.28
2023-03-17T23:09:41.483Z,14.26
2023-03-17T23:12:12.699Z,14.22
2023-03-17T23:14:42.497Z,14.20
2023-03-17T23:17:13.324Z,14.21
2023-03-17T23:19:45.184Z,14.16
2023-03-17T23:22:17.959Z,14.17
2023-03-17T23:24:48.194Z,14.17
2023-03-17T23:27:18.023Z,14.22
2023-03-17T23:29:53.588Z,14.24
2023-03-17T23:32:23.555Z,14.25
2023-03-17T23:34:53.600Z,14.25
2023-03-17T23:37:27.373Z,14.18
2023-03-17T23:39:57.936Z,14.19
2023-03-17T23:42:29.246Z,14.17
2023-03-17T23:44:59.573Z,14.13
2023-03-17T23:47:31.171Z,14.10
2023-03-17T23:50:00.965Z,14.08
2023-03-17T23:52:36.522Z,14.05
2023-03-17T23:55:06.976Z,14.08
2023-03-17T23:57:37.959Z,14.09
